Time;durP1;ratioP1;P1;durP2;ratioP2;P2;SDS_P1;SDS_P2;PMS_P1;PMS_P2;Temp;Humidity;BMP_temperature;BMP_pressure;BME280_temperature;BME280_humidity;BME280_pressure;Samples;Min_cycle;Max_cycle;Signal;HPM_P1;HPM_P2
2021/07/06 00:01:46;;;;;;;0.28;0.28;;;21.20;22.20;;;;;;5094391;28;20521;-75
2021/07/06 00:04:12;;;;;;;0.40;0.40;;;21.20;21.00;;;;;;5094185;28;20132;-75
2021/07/06 00:06:38;;;;;;;0.43;0.43;;;21.20;23.80;;;;;;5094263;28;20499;-75
2021/07/06 00:09:04;;;;;;;0.30;0.30;;;21.20;27.80;;;;;;5094347;28;20122;-75
2021/07/06 00:11:30;;;;;;;0.32;0.32;;;21.20;23.80;;;;;;5093954;28;20530;-75
2021/07/06 00:13:56;;;;;;;0.57;0.22;;;21.20;31.90;;;;;;5094291;28;20075;-75
2021/07/06 00:16:22;;;;;;;0.73;0.63;;;21.10;28.10;;;;;;5093005;28;20486;-75
2021/07/06 00:18:48;;;;;;;0.22;0.22;;;21.00;67.60;;;;;;5093830;28;20047;-75
2021/07/06 00:21:14;;;;;;;0.22;0.22;;;21.00;65.50;;;;;;5094170;28;20036;-75
2021/07/06 00:23:41;;;;;;;0.30;0.30;;;21.00;56.90;;;;;;5094196;28;20028;-75
2021/07/06 00:26:06;;;;;;;0.22;0.22;;;20.90;75.30;;;;;;5094137;28;20040;-75
2021/07/06 00:28:33;;;;;;;0.10;0.10;;;20.90;94.50;;;;;;5093798;28;20046;-75
2021/07/06 00:30:59;;;;;;;0.32;0.32;;;20.90;95.60;;;;;;5093944;28;20073;-75
2021/07/06 00:33:29;;;;;;;0.30;0.28;;;20.90;81.30;;;;;;5094110;28;20032;-75
2021/07/06 00:35:58;;;;;;;0.30;0.30;;;20.90;99.30;;;;;;5094206;28;20036;-75
2021/07/06 00:38:33;;;;;;;0.35;0.35;;;20.80;99.90;;;;;;5093706;28;20036;-75
2021/07/06 00:41:01;;;;;;;0.30;0.30;;;20.80;96.60;;;;;;5094160;28;20044;-75
2021/07/06 00:43:27;;;;;;;0.20;0.20;;;20.80;99.90;;;;;;5092741;28;20036;-75
2021/07/06 00:45:59;;;;;;;0.32;0.32;;;20.70;99.90;;;;;;5093783;28;20039;-75
2021/07/06 00:48:28;;;;;;;0.28;0.28;;;20.60;99.90;;;;;;5097058;28;20028;-75
2021/07/06 00:50:54;;;;;;;0.80;0.63;;;20.60;99.90;;;;;;5097486;28;20083;-75
2021/07/06 00:53:21;;;;;;;0.22;0.22;;;20.60;99.90;;;;;;5096158;28;20394;-75
2021/07/06 00:55:50;;;;;;;0.25;0.25;;;20.60;99.90;;;;;;5097456;28;20040;-75
2021/07/06 00:58:17;;;;;;;0.20;0.20;;;20.60;99.90;;;;;;5096167;28;20036;-75
2021/07/06 01:00:44;;;;;;;0.60;0.45;;;20.60;99.90;;;;;;5097502;28;20051;-75
2021/07/06 01:03:10;;;;;;;0.20;0.20;;;20.60;99.90;;;;;;5097334;28;20068;-75
2021/07/06 01:06:14;;;;;;;0.28;0.28;;;20.60;99.90;;;;;;5096940;28;20036;-75
2021/07/06 01:08:45;;;;;;;0.28;0.28;;;20.60;99.90;;;;;;5096769;28;20043;-75
2021/07/06 01:11:13;;;;;;;0.20;0.20;;;20.50;99.90;;;;;;5096657;28;20422;-75
2021/07/06 01:13:39;;;;;;;0.20;0.20;;;20.50;99.90;;;;;;5096827;28;20048;-75
2021/07/06 01:16:05;;;;;;;1.25;0.30;;;20.50;99.90;;;;;;5096792;28;20040;-76
2021/07/06 01:18:31;;;;;;;0.20;0.20;;;20.50;99.90;;;;;;5097144;28;20126;-75
2021/07/06 01:20:57;;;;;;;0.20;0.20;;;20.50;99.90;;;;;;5095394;28;20062;-75
2021/07/06 01:23:28;;;;;;;0.20;0.20;;;20.50;99.90;;;;;;5096773;28;20032;-75
2021/07/06 01:25:58;;;;;;;0.30;0.30;;;20.60;99.90;;;;;;5096575;28;20040;-75
2021/07/06 01:28:42;;;;;;;0.13;0.13;;;20.50;99.90;;;;;;5096717;28;20036;-75
2021/07/06 01:31:08;;;;;;;0.30;0.30;;;20.50;99.90;;;;;;5096841;28;20044;-75
2021/07/06 01:33:35;;;;;;;0.20;0.20;;;20.50;99.90;;;;;;5096220;28;20097;-75
2021/07/06 01:36:05;;;;;;;0.17;0.17;;;20.50;99.90;;;;;;5096691;28;20036;-75
2021/07/06 01:38:31;;;;;;;0.30;0.30;;;20.50;99.90;;;;;;5096055;28;20111;-75
2021/07/06 01:40:58;;;;;;;0.10;0.10;;;20.50;99.90;;;;;;5096354;28;20036;-75
2021/07/06 01:43:24;;;;;;;0.15;0.15;;;20.50;99.90;;;;;;5096287;28;20039;-75
2021/07/06 01:45:50;;;;;;;0.20;0.20;;;20.60;99.90;;;;;;5096629;28;20047;-75
2021/07/06 01:48:16;;;;;;;0.30;0.30;;;20.60;99.90;;;;;;5096029;28;20386;-75
2021/07/06 01:50:43;;;;;;;0.10;0.10;;;20.60;99.90;;;;;;5096181;28;20046;-75
2021/07/06 01:53:14;;;;;;;0.10;0.10;;;20.60;99.90;;;;;;5096531;28;20044;-76
2021/07/06 01:55:47;;;;;;;0.13;0.13;;;20.70;99.90;;;;;;5096030;28;20044;-75
2021/07/06 01:58:15;;;;;;;0.20;0.20;;;20.60;99.90;;;;;;5095852;28;20036;-75
2021/07/06 02:00:52;;;;;;;0.10;0.10;;;20.60;99.90;;;;;;5096031;28;20047;-76
2021/07/06 02:03:17;;;;;;;0.10;0.10;;;20.70;99.90;;;;;;5096777;28;20036;-75
2021/07/06 02:05:46;;;;;;;0.10;0.10;;;20.70;99.90;;;;;;5095924;28;20036;-75
2021/07/06 02:08:17;;;;;;;0.20;0.20;;;20.70;99.90;;;;;;5096565;28;20059;-75
2021/07/06 02:10:45;;;;;;;0.10;0.10;;;20.60;99.90;;;;;;5095569;28;20055;-75
2021/07/06 02:13:18;;;;;;;0.10;0.10;;;20.70;99.90;;;;;;5095839;28;20050;-75
2021/07/06 02:15:46;;;;;;;0.20;0.20;;;20.60;99.90;;;;;;5096289;28;20135;-75
2021/07/06 02:18:21;;;;;;;0.30;0.30;;;20.60;99.90;;;;;;5095726;28;20028;-75
2021/07/06 02:20:57;;;;;;;0.10;0.10;;;20.60;99.90;;;;;;5095562;28;20044;-75
2021/07/06 02:23:24;;;;;;;0.28;0.28;;;20.70;99.90;;;;;;5095524;28;20371;-75
2021/07/06 02:25:51;;;;;;;1.35;0.50;;;20.70;99.90;;;;;;5095670;28;20054;-75
2021/07/06 02:28:17;;;;;;;0.28;0.28;;;20.70;99.90;;;;;;5095651;28;20066;-75
2021/07/06 02:30:43;;;;;;;0.30;0.30;;;20.70;99.90;;;;;;5095621;28;20044;-75
2021/07/06 02:33:09;;;;;;;0.10;0.10;;;20.70;99.90;;;;;;5095471;28;20040;-75
2021/07/06 02:35:34;;;;;;;0.10;0.10;;;20.60;99.90;;;;;;5095449;28;20087;-75
2021/07/06 02:38:01;;;;;;;0.10;0.10;;;20.70;99.90;;;;;;5095594;28;20119;-75
2021/07/06 02:40:28;;;;;;;0.10;0.10;;;20.70;99.90;;;;;;5095641;28;20039;-75
2021/07/06 02:42:56;;;;;;;0.30;0.30;;;20.70;99.90;;;;;;5095164;28;20074;-75
2021/07/06 02:45:22;;;;;;;0.20;0.20;;;20.70;99.90;;;;;;5095050;28;20451;-75
2021/07/06 02:47:48;;;;;;;0.10;0.10;;;20.80;99.90;;;;;;5095345;28;20062;-75
2021/07/06 02:50:16;;;;;;;0.73;0.20;;;20.80;99.90;;;;;;5094938;28;20560;-75
2021/07/06 02:52:43;;;;;;;0.30;0.30;;;20.70;99.90;;;;;;5094816;28;20123;-75
2021/07/06 02:55:09;;;;;;;0.17;0.17;;;20.60;99.90;;;;;;5095356;28;20052;-75
2021/07/06 03:00:22;;;;;;;0.30;0.30;;;20.70;99.90;;;;;;5095691;28;20036;-75
2021/07/06 03:02:51;;;;;;;0.30;0.30;;;20.70;99.90;;;;;;5094039;28;20584;-75
2021/07/06 03:05:19;;;;;;;0.10;0.10;;;20.70;98.40;;;;;;5094869;28;20040;-75
2021/07/06 03:07:45;;;;;;;0.20;0.20;;;20.70;99.90;;;;;;5094605;28;20032;-75
2021/07/06 03:10:26;;;;;;;0.20;0.20;;;20.70;99.90;;;;;;5094004;28;20055;-75
2021/07/06 03:12:53;;;;;;;0.20;0.20;;;20.70;99.90;;;;;;5093746;28;20044;-75
2021/07/06 03:15:21;;;;;;;0.13;0.13;;;20.70;99.90;;;;;;5094869;28;20415;-75
2021/07/06 03:17:47;;;;;;;0.10;0.10;;;20.70;99.90;;;;;;5094970;28;20055;-75
2021/07/06 03:20:15;;;;;;;0.20;0.20;;;20.70;99.90;;;;;;5094804;28;20070;-75
2021/07/06 03:22:42;;;;;;;0.10;0.10;;;20.70;99.90;;;;;;5093894;28;20050;-75
2021/07/06 03:25:09;;;;;;;0.65;0.43;;;20.70;99.90;;;;;;5094759;28;20194;-75
2021/07/06 03:27:36;;;;;;;0.20;0.20;;;20.80;99.90;;;;;;5093987;28;20386;-75
2021/07/06 03:30:11;;;;;;;0.10;0.10;;;20.80;99.80;;;;;;5094024;28;20047;-75
2021/07/06 03:32:36;;;;;;;0.13;0.13;;;20.70;99.90;;;;;;5095051;28;20036;-75
2021/07/06 03:35:04;;;;;;;0.20;0.20;;;20.80;96.60;;;;;;5094513;28;20044;-75
2021/07/06 03:37:30;;;;;;;0.20;0.20;;;20.90;96.70;;;;;;5094652;28;20038;-75
2021/07/06 03:39:56;;;;;;;0.20;0.20;;;20.80;95.90;;;;;;5095041;28;20036;-76
2021/07/06 03:42:21;;;;;;;0.20;0.20;;;20.90;98.60;;;;;;5094591;28;20039;-75
2021/07/06 03:44:47;;;;;;;0.10;0.10;;;20.80;99.90;;;;;;5094934;28;20092;-75
2021/07/06 03:47:13;;;;;;;0.10;0.10;;;20.80;99.90;;;;;;5094574;28;20043;-75
2021/07/06 03:49:39;;;;;;;0.10;0.10;;;20.80;99.20;;;;;;5094828;28;20112;-75
2021/07/06 03:52:05;;;;;;;0.20;0.20;;;20.90;99.20;;;;;;5094420;28;20036;-75
2021/07/06 03:54:31;;;;;;;0.17;0.17;;;20.90;98.10;;;;;;5094460;28;20055;-75
2021/07/06 03:56:58;;;;;;;0.55;0.40;;;20.80;99.90;;;;;;5094774;28;20382;-75
2021/07/06 03:59:24;;;;;;;0.10;0.10;;;20.80;99.90;;;;;;5094525;28;20125;-74
2021/07/06 04:01:50;;;;;;;0.32;0.15;;;20.80;99.90;;;;;;5094639;28;20059;-75
2021/07/06 04:04:16;;;;;;;0.15;0.15;;;20.80;99.70;;;;;;5094360;28;20483;-75
2021/07/06 04:06:42;;;;;;;0.10;0.10;;;20.80;99.90;;;;;;5094657;28;20043;-75
2021/07/06 04:09:07;;;;;;;0.10;0.10;;;20.90;99.90;;;;;;5094963;28;20113;-75
2021/07/06 04:11:33;;;;;;;0.10;0.10;;;20.80;99.90;;;;;;5093197;28;20058;-75
2021/07/06 04:13:59;;;;;;;0.10;0.10;;;20.80;99.90;;;;;;5094540;28;20044;-74
2021/07/06 04:16:25;;;;;;;0.10;0.10;;;20.90;99.90;;;;;;5094526;28;20475;-75
2021/07/06 04:18:51;;;;;;;0.10;0.10;;;20.90;99.90;;;;;;5094328;28;20143;-75
2021/07/06 04:21:17;;;;;;;0.10;0.10;;;20.90;96.70;;;;;;5095624;28;20040;-75
2021/07/06 04:23:43;;;;;;;0.20;0.20;;;20.90;99.90;;;;;;5097932;28;20043;-75
2021/07/06 04:26:09;;;;;;;0.20;0.20;;;20.90;99.90;;;;;;5098208;28;20051;-75
2021/07/06 04:28:35;;;;;;;0.10;0.10;;;20.90;98.10;;;;;;5098213;28;20036;-75
2021/07/06 04:31:02;;;;;;;0.10;0.10;;;20.90;99.30;;;;;;5098312;28;20036;-75
2021/07/06 04:33:27;;;;;;;0.20;0.20;;;20.80;99.90;;;;;;5096810;28;20112;-75
2021/07/06 04:35:53;;;;;;;0.10;0.10;;;20.90;99.90;;;;;;5097908;28;20538;-75
2021/07/06 04:38:20;;;;;;;0.20;0.20;;;20.80;99.90;;;;;;5096759;28;20039;-75
2021/07/06 04:40:46;;;;;;;0.30;0.30;;;20.80;96.20;;;;;;5097827;28;20483;-76
2021/07/06 04:43:12;;;;;;;0.10;0.10;;;20.90;95.60;;;;;;5097692;28;20040;-76
2021/07/06 04:45:38;;;;;;;0.20;0.20;;;20.90;99.90;;;;;;5096679;28;20040;-76
2021/07/06 04:48:05;;;;;;;0.20;0.20;;;20.90;99.90;;;;;;5097721;28;20500;-76
2021/07/06 04:50:37;;;;;;;0.30;0.30;;;20.90;98.40;;;;;;5097436;28;20109;-76
2021/07/06 04:53:04;;;;;;;0.10;0.10;;;20.90;99.90;;;;;;5097522;28;20089;-76
2021/07/06 04:55:30;;;;;;;0.20;0.20;;;20.90;99.90;;;;;;5097436;28;20042;-76
2021/07/06 04:57:55;;;;;;;0.20;0.20;;;20.90;99.90;;;;;;5097809;28;20060;-75
2021/07/06 05:00:21;;;;;;;0.10;0.10;;;20.80;99.90;;;;;;5097633;28;20036;-75
2021/07/06 05:02:48;;;;;;;0.10;0.10;;;20.90;99.90;;;;;;5098441;28;20059;-76
2021/07/06 05:05:14;;;;;;;0.20;0.20;;;20.90;99.90;;;;;;5097495;28;20089;-76
2021/07/06 05:07:40;;;;;;;0.10;0.10;;;20.90;99.90;;;;;;5097823;28;20072;-75
2021/07/06 05:10:08;;;;;;;0.10;0.10;;;20.90;99.90;;;;;;5097321;28;20534;-75
2021/07/06 05:12:34;;;;;;;0.10;0.10;;;20.90;99.90;;;;;;5097054;28;20126;-75
2021/07/06 05:15:00;;;;;;;0.10;0.10;;;20.90;99.90;;;;;;5097278;28;20547;-76
2021/07/06 05:17:26;;;;;;;0.20;0.20;;;20.90;99.90;;;;;;5096832;28;20062;-76
2021/07/06 05:19:52;;;;;;;0.10;0.10;;;20.90;99.90;;;;;;5096917;28;20077;-76
2021/07/06 05:22:17;;;;;;;0.17;0.17;;;21.00;99.90;;;;;;5096983;28;20048;-76
2021/07/06 05:24:43;;;;;;;0.30;0.30;;;21.00;99.90;;;;;;5096926;28;20040;-75
2021/07/06 05:27:09;;;;;;;0.10;0.10;;;21.00;99.90;;;;;;5096646;28;20048;-75
2021/07/06 05:29:35;;;;;;;0.10;0.10;;;21.00;99.90;;;;;;5096512;28;20497;-75
2021/07/06 05:32:01;;;;;;;0.52;0.47;;;21.00;99.90;;;;;;5096516;28;20039;-76
2021/07/06 05:34:27;;;;;;;0.17;0.17;;;21.10;99.90;;;;;;5096148;28;20040;-76
2021/07/06 05:36:53;;;;;;;0.10;0.10;;;21.10;99.90;;;;;;5096719;28;20560;-76
2021/07/06 05:39:20;;;;;;;0.10;0.10;;;21.20;99.90;;;;;;5096913;28;20085;-76
2021/07/06 05:41:46;;;;;;;0.20;0.20;;;21.20;99.90;;;;;;5096627;28;20070;-75
2021/07/06 05:44:13;;;;;;;0.30;0.30;;;21.20;99.90;;;;;;5096501;28;20047;-76
2021/07/06 05:46:39;;;;;;;0.10;0.10;;;21.30;99.90;;;;;;5096221;28;20032;-75
2021/07/06 05:49:05;;;;;;;0.10;0.10;;;21.30;99.20;;;;;;5096137;28;20074;-75
2021/07/06 05:51:31;;;;;;;0.10;0.10;;;21.40;96.90;;;;;;5096360;28;20067;-77
2021/07/06 05:53:57;;;;;;;0.10;0.10;;;21.40;97.10;;;;;;5096077;28;20054;-75
2021/07/06 05:56:23;;;;;;;0.20;0.20;;;21.30;94.20;;;;;;5095997;28;20028;-76
2021/07/06 05:58:49;;;;;;;0.10;0.10;;;21.40;90.20;;;;;;5096316;28;20043;-76
2021/07/06 06:01:16;;;;;;;0.10;0.10;;;21.40;98.10;;;;;;5096202;28;20043;-76
2021/07/06 06:03:42;;;;;;;0.10;0.10;;;21.40;95.80;;;;;;5095995;28;20352;-76
2021/07/06 06:06:09;;;;;;;0.10;0.10;;;21.50;84.30;;;;;;5096121;28;20121;-76
2021/07/06 06:08:38;;;;;;;0.20;0.20;;;21.60;79.60;;;;;;5096092;28;20040;-76
2021/07/06 06:11:05;;;;;;;0.10;0.10;;;21.80;71.60;;;;;;5096081;28;20056;-75
2021/07/06 06:13:31;;;;;;;0.20;0.20;;;21.90;73.80;;;;;;5095909;28;20101;-76
2021/07/06 06:15:57;;;;;;;0.10;0.10;;;22.00;51.00;;;;;;5096258;28;20036;-75
2021/07/06 06:18:22;;;;;;;0.10;0.10;;;22.00;44.90;;;;;;5096234;28;20040;-76
2021/07/06 06:20:48;;;;;;;0.10;0.10;;;22.00;49.20;;;;;;5096066;28;20505;-76
2021/07/06 06:23:14;;;;;;;0.30;0.30;;;21.90;34.40;;;;;;5096158;28;20036;-76
2021/07/06 06:25:40;;;;;;;0.30;0.30;;;21.70;21.20;;;;;;5096231;28;20118;-75
2021/07/06 06:28:07;;;;;;;0.20;0.20;;;21.20;1.00;;;;;;5096382;28;20036;-76
2021/07/06 06:30:33;;;;;;;0.20;0.20;;;21.10;1.30;;;;;;5095663;28;20032;-76
2021/07/06 06:32:59;;;;;;;0.30;0.30;;;20.90;1.00;;;;;;5095628;28;20050;-76
2021/07/06 06:35:25;;;;;;;0.20;0.20;;;20.60;1.00;;;;;;5095759;28;20036;-76
2021/07/06 06:37:51;;;;;;;0.20;0.20;;;20.40;1.00;;;;;;5095565;28;20043;-76
2021/07/06 06:40:18;;;;;;;0.10;0.10;;;20.30;1.00;;;;;;5095715;28;20039;-76
2021/07/06 06:42:44;;;;;;;0.10;0.10;;;20.10;1.00;;;;;;5095768;28;20046;-76
2021/07/06 06:45:11;;;;;;;0.13;0.13;;;19.90;1.00;;;;;;5095571;28;20128;-76
2021/07/06 06:47:38;;;;;;;0.15;0.15;;;19.60;1.00;;;;;;5095440;28;20032;-76
2021/07/06 06:50:09;;;;;;;0.10;0.10;;;19.40;1.00;;;;;;5095563;28;20043;-76
2021/07/06 06:52:34;;;;;;;;;;;19.30;1.00;;;;;;5095684;28;20047;-76
2021/07/06 06:55:00;;;;;;;0.10;0.10;;;19.20;1.00;;;;;;5095570;28;19915;-76
2021/07/06 06:57:26;;;;;;;0.10;0.10;;;19.10;1.00;;;;;;5095457;28;20028;-75
2021/07/06 06:59:52;;;;;;;0.10;0.10;;;19.10;1.00;;;;;;5095819;28;20364;-76
2021/07/06 07:02:21;;;;;;;0.20;0.20;;;18.90;1.00;;;;;;5095159;28;20390;-76
2021/07/06 07:04:52;;;;;;;0.10;0.10;;;18.90;1.00;;;;;;5095234;28;20083;-75
2021/07/06 07:07:19;;;;;;;0.30;0.20;;;18.90;1.00;;;;;;5095398;28;20510;-76
2021/07/06 07:09:46;;;;;;;0.10;0.10;;;19.00;1.00;;;;;;5095038;28;20085;-76
2021/07/06 07:12:13;;;;;;;0.10;0.10;;;19.00;1.00;;;;;;5095857;28;20586;-75
2021/07/06 07:14:41;;;;;;;0.10;0.10;;;19.30;1.00;;;;;;5095026;28;20426;-76
2021/07/06 07:17:07;;;;;;;0.10;0.10;;;19.40;1.00;;;;;;5094835;28;20085;-76
2021/07/06 07:19:33;;;;;;;0.10;0.10;;;19.50;1.00;;;;;;5094443;28;20044;-76
2021/07/06 07:21:59;;;;;;;0.17;0.17;;;19.50;1.00;;;;;;5094547;28;20407;-76
2021/07/06 07:24:25;;;;;;;0.10;0.10;;;19.60;1.00;;;;;;5094763;28;20058;-76
2021/07/06 07:26:51;;;;;;;0.20;0.20;;;19.80;1.00;;;;;;5094811;28;20025;-76
2021/07/06 07:29:18;;;;;;;0.10;0.10;;;19.80;1.00;;;;;;5095066;28;20043;-76
2021/07/06 07:31:43;;;;;;;0.25;0.25;;;19.80;1.00;;;;;;5094983;28;20035;-76
2021/07/06 07:34:09;;;;;;;0.10;0.10;;;19.90;1.00;;;;;;5094256;28;20059;-76
2021/07/06 07:36:36;;;;;;;0.10;0.10;;;20.00;1.00;;;;;;5094731;28;20368;-75
2021/07/06 07:39:03;;;;;;;0.10;0.10;;;20.10;1.00;;;;;;5094981;28;20051;-75
2021/07/06 07:41:29;;;;;;;0.13;0.13;;;20.10;1.00;;;;;;5094336;28;20579;-76
2021/07/06 07:43:55;;;;;;;0.20;0.20;;;20.20;1.00;;;;;;5094633;28;20067;-76
2021/07/06 07:46:25;;;;;;;0.10;0.10;;;20.30;1.00;;;;;;5094490;28;20028;-76
2021/07/06 07:48:51;;;;;;;0.20;0.20;;;20.50;1.00;;;;;;5095152;28;20036;-76
2021/07/06 07:51:17;;;;;;;0.10;0.10;;;20.70;1.00;;;;;;5094152;28;20550;-76
2021/07/06 07:53:44;;;;;;;0.10;0.10;;;21.00;1.00;;;;;;5094464;28;20130;-76
2021/07/06 07:56:11;;;;;;;0.10;0.10;;;21.20;1.00;;;;;;5095838;28;20502;-76
2021/07/06 07:58:37;;;;;;;0.10;0.10;;;21.10;1.00;;;;;;5098369;28;20048;-76
2021/07/06 08:01:03;;;;;;;0.20;0.20;;;21.00;1.00;;;;;;5098305;28;20036;-76
2021/07/06 08:03:29;;;;;;;0.10;0.10;;;20.90;1.00;;;;;;5098513;28;20044;-76
2021/07/06 08:06:00;;;;;;;0.10;0.10;;;20.90;1.00;;;;;;5097184;28;20042;-76
2021/07/06 08:08:26;;;;;;;0.10;0.10;;;20.80;1.00;;;;;;5097366;28;20040;-76
2021/07/06 08:10:53;;;;;;;0.20;0.20;;;20.90;1.00;;;;;;5098527;28;20048;-76
2021/07/06 08:13:23;;;;;;;0.20;0.20;;;21.20;1.00;;;;;;5098251;28;20083;-76
2021/07/06 08:15:49;;;;;;;0.20;0.20;;;21.30;1.00;;;;;;5098280;28;20189;-76
2021/07/06 08:18:16;;;;;;;0.22;0.22;;;21.50;1.00;;;;;;5098308;28;20036;-76
2021/07/06 08:20:43;;;;;;;0.30;0.30;;;21.60;1.00;;;;;;5097868;28;20043;-76
2021/07/06 08:23:09;;;;;;;0.10;0.10;;;21.70;1.00;;;;;;5097909;28;20131;-76
2021/07/06 08:25:35;;;;;;;0.10;0.10;;;21.80;1.00;;;;;;5098313;28;20166;-76
2021/07/06 08:28:01;;;;;;;0.20;0.20;;;21.90;1.00;;;;;;5098380;28;20044;-76
2021/07/06 08:30:27;;;;;;;0.10;0.10;;;21.80;1.00;;;;;;5097552;28;20478;-76
2021/07/06 08:32:52;;;;;;;0.10;0.10;;;21.80;1.00;;;;;;5097906;28;20062;-76
2021/07/06 08:35:18;;;;;;;0.10;0.10;;;21.90;1.00;;;;;;5097849;28;20046;-76
2021/07/06 08:37:44;;;;;;;0.10;0.10;;;21.90;1.00;;;;;;5097629;28;20062;-76
2021/07/06 08:40:13;;;;;;;0.15;0.15;;;22.20;1.00;;;;;;5097204;28;20032;-76
2021/07/06 08:42:40;;;;;;;0.10;0.10;;;22.50;1.00;;;;;;5098030;28;20566;-76
2021/07/06 08:45:08;;;;;;;0.10;0.10;;;22.50;1.00;;;;;;5097419;28;20070;-76
2021/07/06 08:47:35;;;;;;;0.10;0.10;;;22.50;1.00;;;;;;5097656;28;20035;-76
2021/07/06 08:50:05;;;;;;;0.10;0.10;;;22.80;1.00;;;;;;5095953;28;20036;-75
2021/07/06 08:52:32;;;;;;;0.10;0.10;;;23.00;1.00;;;;;;5097187;28;20036;-76
2021/07/06 08:54:58;;;;;;;0.20;0.20;;;23.50;1.00;;;;;;5097916;28;20035;-76
2021/07/06 08:57:24;;;;;;;0.10;0.10;;;23.40;1.00;;;;;;5097233;28;20120;-76
2021/07/06 08:59:51;;;;;;;0.10;0.10;;;23.20;1.00;;;;;;5097506;28;20036;-76
2021/07/06 09:02:21;;;;;;;0.15;0.15;;;23.40;1.00;;;;;;5096153;28;20048;-76
2021/07/06 09:04:50;;;;;;;0.10;0.10;;;23.30;1.00;;;;;;5097590;28;20028;-76
2021/07/06 09:07:17;;;;;;;0.20;0.20;;;23.40;1.00;;;;;;5096276;28;20032;-76
2021/07/06 09:09:43;;;;;;;0.10;0.10;;;23.50;1.00;;;;;;5096899;28;20050;-76
2021/07/06 09:12:14;;;;;;;0.10;0.10;;;23.30;1.00;;;;;;5097570;28;20056;-75
2021/07/06 09:14:46;;;;;;;;;;;23.40;1.00;;;;;;5098313;28;20039;-76
2021/07/06 09:17:24;;;;;;;0.20;0.20;;;23.20;1.00;;;;;;5097389;28;19908;-76
2021/07/06 09:19:53;;;;;;;0.20;0.20;;;23.00;1.00;;;;;;5097477;28;20032;-76
2021/07/06 09:22:19;;;;;;;0.10;0.10;;;23.00;1.00;;;;;;5097063;28;20521;-76
2021/07/06 09:24:47;;;;;;;0.20;0.20;;;23.00;1.00;;;;;;5095665;28;20036;-76
2021/07/06 09:27:29;;;;;;;0.13;0.13;;;23.10;1.00;;;;;;5097255;28;20364;-76
2021/07/06 09:30:01;;;;;;;0.10;0.10;;;22.80;1.00;;;;;;5097412;28;20082;-76
2021/07/06 09:32:27;;;;;;;0.20;0.20;;;22.70;1.00;;;;;;5097019;28;20048;-76
2021/07/06 09:34:53;;;;;;;0.10;0.10;;;22.90;1.00;;;;;;5097181;28;20032;-76
2021/07/06 09:37:18;;;;;;;0.20;0.20;;;23.20;1.00;;;;;;5095748;28;20043;-76
2021/07/06 09:39:44;;;;;;;0.10;0.10;;;23.60;1.00;;;;;;5097271;28;20042;-76
2021/07/06 09:42:14;;;;;;;0.10;0.10;;;23.90;1.00;;;;;;5096918;28;20082;-76
2021/07/06 09:44:41;;;;;;;0.10;0.10;;;24.00;1.00;;;;;;5096633;28;20067;-76
2021/07/06 09:47:09;;;;;;;0.10;0.10;;;24.20;1.00;;;;;;5096592;28;20451;-76
2021/07/06 09:49:43;;;;;;;0.10;0.10;;;24.50;1.00;;;;;;5096379;28;20032;-76
2021/07/06 09:52:15;;;;;;;0.20;0.20;;;25.10;1.00;;;;;;5096668;28;20436;-76
2021/07/06 09:54:44;;;;;;;0.20;0.20;;;25.30;1.00;;;;;;5096112;28;20076;-76
2021/07/06 09:57:26;;;;;;;0.10;0.10;;;25.20;1.00;;;;;;5096591;28;20032;-76
2021/07/06 10:00:04;;;;;;;0.20;0.20;;;25.20;1.00;;;;;;5096231;28;20487;-76
2021/07/06 10:02:31;;;;;;;0.10;0.10;;;24.90;1.00;;;;;;5096920;28;20048;-76
2021/07/06 10:04:59;;;;;;;0.20;0.20;;;24.40;1.00;;;;;;5096351;28;20490;-77
2021/07/06 10:07:26;;;;;;;0.20;0.20;;;24.10;1.00;;;;;;5096781;28;20114;-76
2021/07/06 10:09:54;;;;;;;0.10;0.10;;;23.70;1.00;;;;;;5096154;28;20390;-77
2021/07/06 10:12:23;;;;;;;0.10;0.10;;;23.60;1.00;;;;;;5095977;28;20048;-76
2021/07/06 10:14:49;;;;;;;0.20;0.20;;;23.50;1.00;;;;;;5096134;28;20103;-76
2021/07/06 10:17:15;;;;;;;0.20;0.20;;;23.70;1.00;;;;;;5096865;28;20110;-76
2021/07/06 10:19:43;;;;;;;0.10;0.10;;;23.60;1.00;;;;;;5095490;28;20078;-76
2021/07/06 10:22:10;;;;;;;0.10;0.10;;;23.50;1.00;;;;;;5094565;28;20605;-76
2021/07/06 10:24:40;;;;;;;0.10;0.10;;;23.20;1.00;;;;;;5095809;28;20040;-76
2021/07/06 10:27:12;;;;;;;0.10;0.10;;;23.10;1.00;;;;;;5096142;28;20093;-76
2021/07/06 10:29:41;;;;;;;0.13;0.13;;;22.90;1.00;;;;;;5096246;28;20044;-76
2021/07/06 10:32:07;;;;;;;0.20;0.20;;;23.00;1.00;;;;;;5095354;28;20051;-76
2021/07/06 10:34:43;;;;;;;0.10;0.10;;;23.20;1.00;;;;;;5095483;28;20048;-76
2021/07/06 10:37:29;;;;;;;0.22;0.22;;;23.50;1.00;;;;;;5094509;28;20050;-76
2021/07/06 10:40:11;;;;;;;0.15;0.15;;;23.00;1.00;;;;;;5095811;28;20040;-76
2021/07/06 10:42:39;;;;;;;0.10;0.10;;;22.80;1.00;;;;;;5095837;28;20043;-76
2021/07/06 10:45:16;;;;;;;0.10;0.10;;;23.10;1.00;;;;;;5095313;28;20039;-76
2021/07/06 10:47:54;;;;;;;0.10;0.10;;;23.30;1.00;;;;;;5095404;28;20123;-76
2021/07/06 10:50:30;;;;;;;0.10;0.10;;;23.40;1.00;;;;;;5094973;28;20474;-76
2021/07/06 10:53:21;;;;;;;0.15;0.15;;;23.50;1.00;;;;;;5095569;28;20044;-76
2021/07/06 10:55:58;;;;;;;;;;;23.50;1.00;;;;;;5095612;28;20036;-76
2021/07/06 10:58:53;;;;;;;0.10;0.10;;;23.30;1.00;;;;;;5095793;28;19908;-76
2021/07/06 11:01:37;;;;;;;0.20;0.20;;;23.20;1.00;;;;;;5095248;28;20032;-76
2021/07/06 11:04:10;;;;;;;0.10;0.10;;;23.20;1.00;;;;;;5094651;28;20487;-76
2021/07/06 11:06:45;;;;;;;0.70;0.32;;;23.00;1.00;;;;;;5095958;28;20044;-76
2021/07/06 11:09:35;;;;;;;0.10;0.10;;;23.00;1.00;;;;;;5093479;28;20044;-76
2021/07/06 11:12:23;;;;;;;0.10;0.10;;;23.20;1.00;;;;;;5094811;28;20052;-76
2021/07/06 11:14:54;;;;;;;0.20;0.20;;;23.00;1.00;;;;;;5094563;28;20123;-76
2021/07/06 11:17:48;;;;;;;0.10;0.10;;;22.80;1.00;;;;;;5095561;28;20040;-76
2021/07/06 11:20:29;;;;;;;0.22;0.22;;;22.40;1.00;;;;;;5094693;28;20043;-76
2021/07/06 11:22:57;;;;;;;0.10;0.10;;;22.30;1.00;;;;;;5095511;28;20118;-76
2021/07/06 11:25:24;;;;;;;0.10;0.10;;;22.40;1.00;;;;;;5094733;28;20032;-76
2021/07/06 11:27:57;;;;;;;0.30;0.30;;;22.30;1.00;;;;;;5094782;28;20032;-76
2021/07/06 11:30:42;;;;;;;0.20;0.20;;;22.50;1.00;;;;;;5094498;28;20040;-76
2021/07/06 11:33:14;;;;;;;0.20;0.20;;;22.60;1.00;;;;;;5095257;28;20036;-76
2021/07/06 11:35:44;;;;;;;0.10;0.10;;;22.80;1.00;;;;;;5094640;28;20044;-76
2021/07/06 11:38:14;;;;;;;0.20;0.20;;;23.00;1.00;;;;;;5095088;28;20036;-75
2021/07/06 11:40:41;;;;;;;0.30;0.30;;;23.20;1.00;;;;;;5095096;28;20506;-76
2021/07/06 11:43:08;;;;;;;0.10;0.10;;;23.40;1.00;;;;;;5094644;28;20482;-76
2021/07/06 11:45:36;;;;;;;0.10;0.10;;;23.70;1.00;;;;;;5094796;28;20082;-76
2021/07/06 11:48:10;;;;;;;0.10;0.10;;;24.10;1.00;;;;;;5095310;28;20043;-76
2021/07/06 11:50:37;;;;;;;0.10;0.10;;;24.10;1.00;;;;;;5094800;28;20036;-76
2021/07/06 11:53:04;;;;;;;0.10;0.10;;;24.40;1.00;;;;;;5094985;28;20079;-76
2021/07/06 11:55:31;;;;;;;0.20;0.20;;;24.60;1.00;;;;;;5095044;28;20113;-76
2021/07/06 11:57:59;;;;;;;0.10;0.10;;;24.90;1.00;;;;;;5094856;28;20532;-76
2021/07/06 12:00:29;;;;;;;0.20;0.20;;;24.90;1.00;;;;;;5094922;28;20070;-76
2021/07/06 12:03:17;;;;;;;0.30;0.30;;;24.90;1.00;;;;;;5094784;28;20085;-76
2021/07/06 12:05:44;;;;;;;0.10;0.10;;;25.10;1.00;;;;;;5094246;28;20040;-76
2021/07/06 12:08:18;;;;;;;0.17;0.17;;;25.30;1.00;;;;;;5094998;28;20036;-76
2021/07/06 12:11:17;;;;;;;0.57;0.57;;;25.60;1.00;;;;;;5094579;28;20103;-76
2021/07/06 12:13:43;;;;;;;0.10;0.10;;;25.80;1.00;;;;;;5081939;28;20118;-76
2021/07/06 12:16:12;;;;;;;0.10;0.10;;;25.50;1.00;;;;;;5094336;28;20067;-76
2021/07/06 12:18:51;;;;;;;0.20;0.20;;;25.50;1.00;;;;;;5094414;28;20064;-76
2021/07/06 12:21:30;;;;;;;0.20;0.20;;;25.50;1.00;;;;;;5094123;28;20040;-76
2021/07/06 12:23:59;;;;;;;0.10;0.10;;;25.50;1.00;;;;;;5094217;28;20034;-76
2021/07/06 12:26:26;;;;;;;0.13;0.13;;;25.60;1.00;;;;;;5094219;28;20032;-76
2021/07/06 12:28:52;;;;;;;0.10;0.10;;;25.70;1.00;;;;;;5094177;28;20028;-75
2021/07/06 12:31:35;;;;;;;0.20;0.20;;;25.70;1.00;;;;;;5094193;28;20069;-76
2021/07/06 12:34:05;;;;;;;0.20;0.20;;;25.60;1.00;;;;;;5094650;28;20086;-76
2021/07/06 12:36:37;;;;;;;0.10;0.10;;;25.30;1.00;;;;;;5094214;28;20043;-76
2021/07/06 12:39:26;;;;;;;0.10;0.10;;;24.90;1.00;;;;;;5093899;28;20040;-76
2021/07/06 12:41:54;;;;;;;0.20;0.20;;;24.80;1.00;;;;;;5094515;28;20028;-76
2021/07/06 12:44:44;;;;;;;0.25;0.25;;;24.90;1.00;;;;;;5097789;28;20089;-76
2021/07/06 12:47:23;;;;;;;0.10;0.10;;;24.80;1.00;;;;;;5097972;28;20032;-76
2021/07/06 12:50:11;;;;;;;0.20;0.20;;;25.10;1.00;;;;;;5097443;28;20043;-76
2021/07/06 12:52:38;;;;;;;0.20;0.20;;;25.00;1.00;;;;;;5097909;28;20083;-76
2021/07/06 12:55:19;;;;;;;0.20;0.20;;;24.80;1.00;;;;;;5097522;28;20048;-76
2021/07/06 12:57:50;;;;;;;0.10;0.10;;;24.60;1.00;;;;;;5098183;28;20032;-76
2021/07/06 13:00:17;;;;;;;;;;;24.30;1.00;;;;;;5098074;28;20040;-76
2021/07/06 13:02:47;;;;;;;0.20;0.20;;;24.50;1.00;;;;;;5097131;28;20005;-76
2021/07/06 13:05:31;;;;;;;0.10;0.10;;;24.80;1.00;;;;;;5097152;28;20043;-76